createdAt,value
2018-06-09T00:02:22.363Z,98234.00
2018-06-09T00:04:51.026Z,98241.00
2018-06-09T00:07:19.732Z,98240.00
2018-06-09T00:09:48.388Z,98241.00
2018-06-09T00:12:17.003Z,98246.00
2018-06-09T00:14:45.608Z,98251.00
2018-06-09T00:17:14.480Z,98246.00
2018-06-09T00:19:43.403Z,98246.00
2018-06-09T00:22:12.280Z,98248.00
2018-06-09T00:24:41.168Z,98254.00
2018-06-09T00:27:10.111Z,98252.00
2018-06-09T00:29:38.723Z,98253.00
2018-06-09T00:32:07.638Z,98259.00
2018-06-09T00:34:36.535Z,98254.00
2018-06-09T00:37:05.151Z,98258.00
2018-06-09T00:39:33.738Z,98259.00
2018-06-09T00:42:02.352Z,98258.00
2018-06-09T00:44:30.990Z,98259.00
2018-06-09T00:46:59.895Z,98264.00
2018-06-09T00:49:28.519Z,98260.00
2018-06-09T00:51:57.403Z,98263.00
2018-06-09T00:54:26.385Z,98266.00
2018-06-09T00:56:55.223Z,98264.00
2018-06-09T00:59:24.052Z,98266.00
2018-06-09T01:01:52.915Z,98266.00
2018-06-09T01:04:21.799Z,98267.00
2018-06-09T01:06:50.778Z,98262.00
2018-06-09T01:09:19.378Z,98267.00
2018-06-09T01:11:48.019Z,98274.00
2018-06-09T01:14:16.703Z,98274.00
2018-06-09T01:16:45.563Z,98271.00
2018-06-09T01:19:14.155Z,98266.00
2018-06-09T01:21:43.699Z,98261.00
2018-06-09T01:24:12.643Z,98268.00
2018-06-09T01:26:41.303Z,98270.00
2018-06-09T01:29:10.248Z,98274.00
2018-06-09T01:31:39.115Z,98275.00
2018-06-09T01:34:07.999Z,98272.00
2018-06-09T01:36:36.657Z,98271.00
2018-06-09T01:39:08.430Z,98269.00
2018-06-09T01:41:37.842Z,98269.00
2018-06-09T01:44:06.764Z,98268.00
2018-06-09T01:46:35.667Z,98270.00
2018-06-09T01:49:05.169Z,98262.00
2018-06-09T01:51:33.769Z,98257.00
2018-06-09T01:54:02.399Z,98256.00
2018-06-09T01:56:31.043Z,98262.00
2018-06-09T01:58:59.681Z,98261.00
2018-06-09T02:01:28.394Z,98266.00
2018-06-09T02:03:57.010Z,98270.00
2018-06-09T02:06:25.641Z,98266.00
2018-06-09T02:08:54.293Z,98272.00
2018-06-09T02:11:22.918Z,98272.00
2018-06-09T02:13:51.816Z,98270.00
2018-06-09T02:16:20.733Z,98273.00
2018-06-09T02:18:49.659Z,98270.00
2018-06-09T02:21:18.562Z,98275.00
2018-06-09T02:23:47.431Z,98277.00
2018-06-09T02:26:16.359Z,98270.00
2018-06-09T02:28:45.204Z,98265.00
2018-06-09T02:31:13.665Z,98263.00
2018-06-09T02:33:42.302Z,98267.00
2018-06-09T02:36:10.952Z,98264.00
2018-06-09T02:38:39.392Z,98271.00
2018-06-09T02:41:08.274Z,98263.00
2018-06-09T02:43:37.199Z,98259.00
2018-06-09T02:46:06.146Z,98254.00
2018-06-09T02:48:35.067Z,98252.00
2018-06-09T02:51:05.247Z,98247.00
2018-06-09T02:53:33.868Z,98254.00
2018-06-09T02:56:02.510Z,98245.00
2018-06-09T02:58:31.115Z,98238.00
2018-06-09T03:00:59.902Z,98244.00
2018-06-09T03:03:28.808Z,98245.00
2018-06-09T03:05:57.748Z,98251.00
2018-06-09T03:08:26.685Z,98256.00
2018-06-09T03:10:55.636Z,98256.00
2018-06-09T03:13:24.259Z,98263.00
2018-06-09T03:15:53.252Z,98273.00
2018-06-09T03:18:22.108Z,98272.00
2018-06-09T03:20:51.012Z,98269.00
2018-06-09T03:23:19.895Z,98269.00
2018-06-09T03:25:48.749Z,98283.00
2018-06-09T03:28:17.604Z,98282.00
2018-06-09T03:30:46.384Z,98288.00
2018-06-09T03:33:14.987Z,98286.00
2018-06-09T03:35:43.595Z,98281.00
2018-06-09T03:38:12.247Z,98279.00
2018-06-09T03:40:40.828Z,98276.00
2018-06-09T03:43:09.462Z,98275.00
2018-06-09T03:45:38.077Z,98273.00
2018-06-09T03:48:06.662Z,98283.00
2018-06-09T03:50:35.346Z,98277.00
2018-06-09T03:53:05.230Z,98281.00
2018-06-09T03:55:33.847Z,98289.00
2018-06-09T03:58:02.810Z,98283.00
2018-06-09T04:00:31.448Z,98279.00
2018-06-09T04:03:00.343Z,98278.00
2018-06-09T04:05:29.235Z,98278.00
2018-06-09T04:07:58.120Z,98274.00
2018-06-09T04:10:27.011Z,98274.00
2018-06-09T04:12:55.869Z,98268.00
2018-06-09T04:15:24.625Z,98268.00
2018-06-09T04:17:53.240Z,98269.00
2018-06-09T04:20:21.875Z,98278.00
2018-06-09T04:22:50.483Z,98280.00
2018-06-09T04:25:19.387Z,98280.00
2018-06-09T04:27:48.298Z,98275.00
2018-06-09T04:30:17.219Z,98271.00
2018-06-09T04:32:46.115Z,98273.00
2018-06-09T04:35:15.014Z,98265.00
2018-06-09T04:37:43.970Z,98271.00
2018-06-09T04:40:12.911Z,98273.00
2018-06-09T04:42:41.923Z,98279.00
2018-06-09T04:45:10.902Z,98279.00
2018-06-09T04:47:39.866Z,98285.00
2018-06-09T04:50:08.958Z,98286.00
2018-06-09T04:52:37.951Z,98289.00
2018-06-09T04:55:06.643Z,98287.00
2018-06-09T04:57:35.275Z,98296.00
2018-06-09T05:00:04.023Z,98303.00
2018-06-09T05:02:32.776Z,98304.00
2018-06-09T05:05:01.459Z,98301.00
2018-06-09T05:07:30.367Z,98302.00
2018-06-09T05:09:59.303Z,98308.00
2018-06-09T05:12:28.190Z,98308.00
2018-06-09T05:14:57.203Z,98311.00
2018-06-09T05:17:26.120Z,98312.00
2018-06-09T05:19:55.031Z,98318.00
2018-06-09T05:22:23.926Z,98320.00
2018-06-09T05:24:52.783Z,98315.00
2018-06-09T05:27:21.703Z,98318.00
2018-06-09T05:29:50.611Z,98319.00
2018-06-09T05:32:19.523Z,98320.00
2018-06-09T05:34:48.296Z,98326.00
2018-06-09T05:37:16.959Z,98329.00
2018-06-09T05:39:45.623Z,98331.00
2018-06-09T05:42:14.253Z,98332.00
2018-06-09T05:44:42.864Z,98327.00
2018-06-09T05:47:11.513Z,98333.00
2018-06-09T05:49:40.139Z,98338.00
2018-06-09T05:52:08.756Z,98344.00
2018-06-09T05:54:38.369Z,98341.00
2018-06-09T05:57:07.357Z,98347.00
2018-06-09T05:59:36.093Z,98354.00
2018-06-09T06:02:04.802Z,98358.00
2018-06-09T06:04:33.462Z,98365.00
2018-06-09T06:07:03.123Z,98359.00
2018-06-09T06:09:32.443Z,98362.00
2018-06-09T06:12:01.284Z,98362.00
2018-06-09T06:14:30.140Z,98363.00
2018-06-09T06:17:02.735Z,98367.00
2018-06-09T06:19:32.456Z,98374.00
2018-06-09T06:22:01.063Z,98379.00
2018-06-09T06:24:29.776Z,98382.00
2018-06-09T06:26:58.176Z,98380.00
2018-06-09T06:29:26.784Z,98380.00
2018-06-09T06:31:55.439Z,98379.00
2018-06-09T06:34:24.009Z,98380.00
2018-06-09T06:36:52.564Z,98381.00
2018-06-09T06:39:21.243Z,98336.00
2018-06-09T06:41:49.843Z,98374.00
2018-06-09T06:44:18.431Z,98376.00
2018-06-09T06:46:46.983Z,98377.00
2018-06-09T06:49:15.709Z,98369.00
2018-06-09T06:51:44.529Z,98374.00
2018-06-09T06:54:13.491Z,98384.00
2018-06-09T06:56:43.159Z,98382.00
2018-06-09T06:59:11.923Z,98380.00
2018-06-09T07:01:40.776Z,98378.00
2018-06-09T07:04:09.638Z,98372.00
2018-06-09T07:06:38.476Z,98368.00
2018-06-09T07:09:08.231Z,98363.00
2018-06-09T07:11:37.016Z,98360.00
2018-06-09T07:14:05.565Z,98362.00
2018-06-09T07:16:34.103Z,98361.00
2018-06-09T07:19:02.696Z,98364.00
2018-06-09T07:21:31.238Z,98365.00
2018-06-09T07:23:59.771Z,98371.00
2018-06-09T07:26:28.316Z,98372.00
2018-06-09T07:28:56.978Z,98359.00
2018-06-09T07:31:25.572Z,98367.00
2018-06-09T07:33:54.120Z,98367.00
2018-06-09T07:36:22.704Z,98369.00
2018-06-09T07:38:51.264Z,98368.00
2018-06-09T07:41:20.077Z,98367.00
2018-06-09T07:43:48.914Z,98361.00
2018-06-09T07:46:17.816Z,98363.00
2018-06-09T07:48:46.444Z,98361.00
2018-06-09T07:51:15.310Z,98359.00
2018-06-09T07:53:44.244Z,98366.00
2018-06-09T07:56:13.171Z,98361.00
2018-06-09T07:58:41.959Z,98366.00
2018-06-09T08:01:10.569Z,98367.00
2018-06-09T08:03:39.286Z,98368.00
2018-06-09T08:06:08.081Z,98368.00
2018-06-09T08:08:36.761Z,98362.00
2018-06-09T08:11:05.521Z,98363.00
2018-06-09T08:13:34.118Z,98362.00
2018-06-09T08:16:02.874Z,98359.00
2018-06-09T08:18:31.643Z,98358.00
2018-06-09T08:21:00.583Z,98363.00
2018-06-09T08:23:29.523Z,98355.00
2018-06-09T08:25:58.496Z,98367.00
2018-06-09T08:28:27.238Z,98371.00
2018-06-09T08:30:55.851Z,98370.00
2018-06-09T08:33:24.489Z,98380.00
2018-06-09T08:35:53.080Z,98377.00
2018-06-09T08:38:21.670Z,98375.00
2018-06-09T08:40:50.324Z,98374.00
2018-06-09T08:43:19.022Z,98378.00
2018-06-09T08:45:47.751Z,98379.00
2018-06-09T08:48:16.476Z,98384.00
2018-06-09T08:50:45.423Z,98386.00
2018-06-09T08:53:14.379Z,98384.00
2018-06-09T08:55:43.334Z,98385.00
2018-06-09T08:58:12.453Z,98389.00
2018-06-09T09:00:41.329Z,98386.00
2018-06-09T09:03:10.234Z,98387.00
2018-06-09T09:05:39.172Z,98391.00
2018-06-09T09:08:08.087Z,98390.00
2018-06-09T09:10:36.975Z,98390.00
2018-06-09T09:13:05.629Z,98389.00
2018-06-09T09:15:34.307Z,98389.00
2018-06-09T09:18:02.908Z,98395.00
2018-06-09T09:20:31.705Z,98396.00
2018-06-09T09:23:00.573Z,98403.00
2018-06-09T09:25:29.497Z,98406.00
2018-06-09T09:27:58.369Z,98408.00
2018-06-09T09:30:27.107Z,98410.00
2018-06-09T09:32:55.776Z,98409.00
2018-06-09T09:35:24.383Z,98411.00
2018-06-09T09:37:52.971Z,98414.00
2018-06-09T09:40:21.639Z,98417.00
2018-06-09T09:42:50.223Z,98415.00
2018-06-09T09:45:18.856Z,98410.00
2018-06-09T09:47:47.454Z,98409.00
2018-06-09T09:50:16.213Z,98407.00
2018-06-09T09:52:45.099Z,98408.00
2018-06-09T09:55:14.012Z,98407.00
2018-06-09T09:58:09.216Z,98408.00
2018-06-09T10:00:38.861Z,98407.00
2018-06-09T10:03:08.571Z,98398.00
2018-06-09T10:05:37.206Z,98407.00
2018-06-09T10:08:05.954Z,98405.00
2018-06-09T10:10:34.673Z,98405.00
2018-06-09T10:13:03.837Z,98406.00
2018-06-09T10:15:32.536Z,98406.00
2018-06-09T10:18:01.269Z,98404.00
2018-06-09T10:20:30.103Z,98406.00
2018-06-09T10:22:58.831Z,98409.00
2018-06-09T10:25:27.706Z,98407.00
2018-06-09T10:27:56.690Z,98400.00
2018-06-09T10:30:25.551Z,98404.00
2018-06-09T10:32:54.163Z,98405.00
2018-06-09T10:35:22.716Z,98408.00
2018-06-09T10:37:51.348Z,98405.00
2018-06-09T10:40:19.979Z,98402.00
2018-06-09T10:42:48.706Z,98409.00
2018-06-09T10:45:17.336Z,98410.00
2018-06-09T10:47:45.895Z,98410.00
2018-06-09T10:50:14.564Z,98415.00
2018-06-09T10:52:43.138Z,98410.00
2018-06-09T10:55:12.004Z,98410.00
2018-06-09T10:57:40.889Z,98412.00
2018-06-09T11:00:09.784Z,98416.00
2018-06-09T11:02:38.791Z,98411.00
2018-06-09T11:05:07.921Z,98412.00
2018-06-09T11:07:36.979Z,98413.00
2018-06-09T11:10:05.899Z,98415.00
2018-06-09T11:12:34.801Z,98408.00
2018-06-09T11:15:03.728Z,98404.00
2018-06-09T11:17:32.583Z,98400.00
2018-06-09T11:20:01.440Z,98398.00
2018-06-09T11:22:30.410Z,98397.00
2018-06-09T11:24:59.227Z,98398.00
2018-06-09T11:27:28.488Z,98390.00
2018-06-09T11:29:57.384Z,98396.00
2018-06-09T11:32:26.253Z,98406.00
2018-06-09T11:34:54.919Z,98402.00
2018-06-09T11:37:23.544Z,98399.00
2018-06-09T11:39:52.151Z,98402.00
2018-06-09T11:42:20.866Z,98399.00
2018-06-09T11:44:49.505Z,98395.00
2018-06-09T11:47:18.127Z,98393.00
2018-06-09T11:49:46.929Z,98398.00
2018-06-09T11:52:15.561Z,98400.00
2018-06-09T11:54:44.119Z,98403.00
2018-06-09T11:57:12.776Z,98401.00
2018-06-09T11:59:41.409Z,98408.00
2018-06-09T12:02:10.914Z,98404.00
2018-06-09T12:04:43.085Z,98406.00
2018-06-09T12:07:12.178Z,98404.00
2018-06-09T12:09:41.166Z,98401.00
2018-06-09T12:12:10.057Z,98405.00
2018-06-09T12:14:39.478Z,98405.00
2018-06-09T12:17:08.219Z,98408.00
2018-06-09T12:19:37.835Z,98406.00
2018-06-09T12:22:06.716Z,98406.00
2018-06-09T12:24:35.564Z,98400.00
2018-06-09T12:27:05.184Z,98403.00
2018-06-09T12:29:34.699Z,98406.00
2018-06-09T12:32:04.191Z,98401.00
2018-06-09T12:34:33.104Z,98402.00
2018-06-09T12:37:01.836Z,98396.00
2018-06-09T12:39:30.509Z,98398.00
2018-06-09T12:41:59.324Z,98400.00
2018-06-09T12:44:28.093Z,98399.00
2018-06-09T12:46:56.797Z,98398.00
2018-06-09T12:49:25.555Z,98405.00
2018-06-09T12:51:54.446Z,98405.00
2018-06-09T12:54:23.130Z,98407.00
2018-06-09T12:56:52.593Z,98399.00
2018-06-09T12:59:21.218Z,98402.00
2018-06-09T13:01:49.951Z,98398.00
2018-06-09T13:04:18.631Z,98397.00
2018-06-09T13:06:48.141Z,98400.00
2018-06-09T13:09:16.802Z,98393.00
2018-06-09T13:11:45.639Z,98397.00
2018-06-09T13:14:17.516Z,98397.00
2018-06-09T13:16:46.236Z,98380.00
2018-06-09T13:19:15.246Z,98379.00
2018-06-09T13:21:44.231Z,98377.00
2018-06-09T13:24:13.144Z,98375.00
2018-06-09T13:26:42.135Z,98375.00
2018-06-09T13:29:10.819Z,98372.00
2018-06-09T13:31:39.762Z,98371.00
2018-06-09T13:34:08.376Z,98373.00
2018-06-09T13:36:37.875Z,98378.00
2018-06-09T13:39:07.830Z,98373.00
2018-06-09T13:41:36.599Z,98379.00
2018-06-09T13:44:05.343Z,98383.00
2018-06-09T13:46:34.211Z,98384.00
2018-06-09T13:49:03.103Z,98386.00
2018-06-09T13:51:32.044Z,98383.00
2018-06-09T13:54:00.998Z,98380.00
2018-06-09T13:56:29.648Z,98380.00
2018-06-09T13:58:58.251Z,98378.00
2018-06-09T14:01:26.898Z,98380.00
2018-06-09T14:03:55.526Z,98377.00
2018-06-09T14:06:24.750Z,98377.00
2018-06-09T14:08:53.701Z,98374.00
2018-06-09T14:11:22.323Z,98380.00
2018-06-09T14:13:50.985Z,98388.00
2018-06-09T14:16:19.636Z,98379.00
2018-06-09T14:18:48.278Z,98381.00
2018-06-09T14:21:16.883Z,98380.00
2018-06-09T14:23:45.553Z,98380.00
2018-06-09T14:26:14.370Z,98381.00
2018-06-09T14:28:43.263Z,98379.00
2018-06-09T14:31:12.206Z,98382.00
2018-06-09T14:33:41.125Z,98371.00
2018-06-09T14:36:09.883Z,98372.00
2018-06-09T14:38:38.343Z,98372.00
2018-06-09T14:41:06.966Z,98373.00
2018-06-09T14:43:35.559Z,98370.00
2018-06-09T14:46:04.198Z,98360.00
2018-06-09T14:48:33.098Z,98367.00
2018-06-09T14:51:02.024Z,98364.00
2018-06-09T14:53:30.958Z,98365.00
2018-06-09T14:55:59.638Z,98358.00
2018-06-09T14:58:28.226Z,98366.00
2018-06-09T15:00:56.896Z,98366.00
2018-06-09T15:03:25.543Z,98365.00
2018-06-09T15:05:54.160Z,98363.00
2018-06-09T15:08:22.761Z,98362.00
2018-06-09T15:10:51.368Z,98358.00
2018-06-09T15:13:19.990Z,98363.00
2018-06-09T15:15:48.678Z,98359.00
2018-06-09T15:18:17.309Z,98362.00
2018-06-09T15:20:45.946Z,98358.00
2018-06-09T15:23:14.559Z,98360.00
2018-06-09T15:25:43.258Z,98357.00
2018-06-09T15:28:16.228Z,98352.00
2018-06-09T15:30:47.670Z,98355.00
2018-06-09T15:33:16.331Z,98354.00
2018-06-09T15:35:46.006Z,98354.00
2018-06-09T15:38:14.916Z,98358.00
2018-06-09T15:40:43.896Z,98357.00
2018-06-09T15:43:13.188Z,98351.00
2018-06-09T15:45:41.961Z,98349.00
2018-06-09T15:48:10.620Z,98351.00
2018-06-09T15:50:39.210Z,98352.00
2018-06-09T15:53:07.883Z,98360.00
2018-06-09T15:55:36.599Z,98357.00
2018-06-09T15:58:05.639Z,98352.00
2018-06-09T16:00:35.118Z,98352.00
2018-06-09T16:03:04.175Z,98348.00
2018-06-09T16:05:33.559Z,98346.00
2018-06-09T16:08:02.475Z,98350.00
2018-06-09T16:10:31.459Z,98359.00
2018-06-09T16:13:01.332Z,98352.00
2018-06-09T16:15:30.264Z,98358.00
2018-06-09T16:17:59.211Z,98360.00
2018-06-09T16:20:28.634Z,98355.00
2018-06-09T16:22:57.704Z,98364.00
2018-06-09T16:25:27.575Z,98358.00
2018-06-09T16:27:56.484Z,98365.00
2018-06-09T16:30:25.364Z,98364.00
2018-06-09T16:32:54.268Z,98362.00
2018-06-09T16:35:23.150Z,98357.00
2018-06-09T16:37:52.094Z,98359.00
2018-06-09T16:40:20.719Z,98361.00
2018-06-09T16:42:49.344Z,98355.00
2018-06-09T16:45:17.939Z,98361.00
2018-06-09T16:47:46.561Z,98368.00
2018-06-09T16:50:15.178Z,98365.00
2018-06-09T16:52:43.851Z,98367.00
2018-06-09T16:55:12.243Z,98366.00
2018-06-09T16:57:40.871Z,98368.00
2018-06-09T17:00:09.534Z,98371.00
2018-06-09T17:02:38.186Z,98363.00
2018-06-09T17:05:06.960Z,98361.00
2018-06-09T17:07:36.253Z,98357.00
2018-06-09T17:10:04.988Z,98356.00
2018-06-09T17:12:33.741Z,98360.00
2018-06-09T17:15:02.419Z,98360.00
2018-06-09T17:17:31.038Z,98364.00
2018-06-09T17:19:59.649Z,98356.00
2018-06-09T17:22:28.306Z,98357.00
2018-06-09T17:24:56.895Z,98359.00
2018-06-09T17:27:25.576Z,98363.00
2018-06-09T17:29:54.211Z,98365.00
2018-06-09T17:32:23.097Z,98363.00
2018-06-09T17:34:51.984Z,98364.00
2018-06-09T17:37:21.761Z,98361.00
2018-06-09T17:39:50.703Z,98364.00
2018-06-09T17:42:19.591Z,98360.00
2018-06-09T17:44:48.449Z,98365.00
2018-06-09T17:47:17.293Z,98366.00
2018-06-09T17:49:46.303Z,98368.00
2018-06-09T17:52:15.221Z,98370.00
2018-06-09T17:54:44.084Z,98374.00
2018-06-09T17:57:12.991Z,98373.00
2018-06-09T17:59:41.841Z,98373.00
2018-06-09T18:02:11.169Z,98377.00
2018-06-09T18:04:39.844Z,98383.00
2018-06-09T18:07:08.499Z,98381.00
2018-06-09T18:09:37.801Z,98387.00
2018-06-09T18:12:06.492Z,98395.00
2018-06-09T18:14:35.220Z,98387.00
2018-06-09T18:17:03.915Z,98390.00
2018-06-09T18:19:32.660Z,98391.00
2018-06-09T18:22:01.207Z,98390.00
2018-06-09T18:24:29.898Z,98389.00
2018-06-09T18:26:58.507Z,98392.00
2018-06-09T18:29:27.160Z,98399.00
2018-06-09T18:31:55.809Z,98393.00
2018-06-09T18:34:24.451Z,98396.00
2018-06-09T18:36:53.127Z,98397.00
2018-06-09T18:39:21.804Z,98403.00
2018-06-09T18:41:50.507Z,98406.00
2018-06-09T18:44:19.548Z,98409.00
2018-06-09T18:46:48.246Z,98417.00
2018-06-09T18:49:16.863Z,98417.00
2018-06-09T18:51:45.506Z,98418.00
2018-06-09T18:54:14.144Z,98417.00
2018-06-09T18:56:42.819Z,98421.00
2018-06-09T18:59:11.494Z,98422.00
2018-06-09T19:01:40.799Z,98424.00
2018-06-09T19:04:10.201Z,98422.00
2018-06-09T19:06:39.779Z,98426.00
2018-06-09T19:09:09.264Z,98423.00
2018-06-09T19:11:38.743Z,98422.00
2018-06-09T19:14:07.721Z,98423.00
2018-06-09T19:16:36.719Z,98422.00
2018-06-09T19:19:05.739Z,98418.00
2018-06-09T19:21:34.674Z,98421.00
2018-06-09T19:24:03.403Z,98428.00
2018-06-09T19:26:32.093Z,98429.00
2018-06-09T19:29:00.711Z,98433.00
2018-06-09T19:31:29.589Z,98438.00
2018-06-09T19:33:58.724Z,98441.00
2018-06-09T19:36:27.688Z,98445.00
2018-06-09T19:38:56.602Z,98447.00
2018-06-09T19:41:25.412Z,98453.00
2018-06-09T19:43:54.156Z,98458.00
2018-06-09T19:46:22.837Z,98465.00
2018-06-09T19:48:51.500Z,98464.00
2018-06-09T19:51:20.157Z,98468.00
2018-06-09T19:53:48.734Z,98472.00
2018-06-09T19:56:17.373Z,98471.00
2018-06-09T19:58:46.050Z,98478.00
2018-06-09T20:01:14.784Z,98483.00
2018-06-09T20:03:43.826Z,98490.00
2018-06-09T20:06:12.717Z,98493.00
2018-06-09T20:08:41.656Z,98503.00
2018-06-09T20:11:10.561Z,98509.00
2018-06-09T20:13:39.491Z,98509.00
2018-06-09T20:16:08.449Z,98507.00
2018-06-09T20:18:37.391Z,98508.00
2018-06-09T20:21:06.279Z,98512.00
2018-06-09T20:23:35.386Z,98513.00
2018-06-09T20:26:06.510Z,98512.00
2018-06-09T20:28:35.529Z,98517.00
2018-06-09T20:31:04.464Z,98507.00
2018-06-09T20:33:33.151Z,98509.00
2018-06-09T20:36:01.843Z,98500.00
2018-06-09T20:38:44.566Z,98503.00
2018-06-09T20:41:13.305Z,98500.00
2018-06-09T20:43:43.653Z,98502.00
2018-06-09T20:46:12.684Z,98496.00
2018-06-09T20:48:41.676Z,98494.00
2018-06-09T20:51:10.707Z,98494.00
2018-06-09T20:53:39.698Z,98490.00
2018-06-09T20:56:08.700Z,98494.00
2018-06-09T20:58:38.572Z,98498.00
2018-06-09T21:01:07.641Z,98506.00
2018-06-09T21:03:36.836Z,98507.00
2018-06-09T21:06:07.039Z,98505.00
2018-06-09T21:08:36.000Z,98505.00
2018-06-09T21:11:04.942Z,98512.00
2018-06-09T21:13:33.914Z,98507.00
2018-06-09T21:16:04.446Z,98516.00
2018-06-09T21:18:33.479Z,98522.00
2018-06-09T21:21:02.563Z,98519.00
2018-06-09T21:23:31.629Z,98526.00
2018-06-09T21:26:01.651Z,98520.00
2018-06-09T21:28:35.164Z,98521.00
2018-06-09T21:31:09.699Z,98522.00
2018-06-09T21:34:00.958Z,98527.00
2018-06-09T21:36:37.337Z,98523.00
2018-06-09T21:39:17.574Z,98523.00
2018-06-09T21:41:51.911Z,98521.00
2018-06-09T21:44:26.328Z,98519.00
2018-06-09T21:46:55.208Z,98516.00
2018-06-09T21:49:24.139Z,98520.00
2018-06-09T21:51:53.073Z,98527.00
2018-06-09T21:54:22.217Z,98533.00
2018-06-09T21:56:51.109Z,98532.00
2018-06-09T21:59:20.014Z,98532.00
2018-06-09T22:01:48.969Z,98532.00
2018-06-09T22:04:17.893Z,98532.00
2018-06-09T22:06:46.779Z,98534.00
2018-06-09T22:09:15.496Z,98533.00
2018-06-09T22:11:44.164Z,98532.00
2018-06-09T22:14:12.996Z,98534.00
2018-06-09T22:16:41.652Z,98536.00
2018-06-09T22:19:10.591Z,98533.00
2018-06-09T22:21:39.208Z,98531.00
2018-06-09T22:24:08.100Z,98526.00
2018-06-09T22:26:36.853Z,98519.00
2018-06-09T22:29:05.666Z,98520.00
2018-06-09T22:31:34.355Z,98514.00
2018-06-09T22:34:03.045Z,98525.00
2018-06-09T22:36:31.655Z,98527.00
2018-06-09T22:39:00.236Z,98526.00
2018-06-09T22:41:28.833Z,98526.00
2018-06-09T22:43:57.416Z,98524.00
2018-06-09T22:46:26.126Z,98523.00
2018-06-09T22:48:55.060Z,98522.00
2018-06-09T22:51:24.003Z,98522.00
2018-06-09T22:53:52.946Z,98513.00
2018-06-09T22:56:21.779Z,98511.00
2018-06-09T22:58:51.492Z,98506.00
2018-06-09T23:01:20.183Z,98505.00
2018-06-09T23:03:48.908Z,98503.00
2018-06-09T23:06:19.254Z,98512.00
2018-06-09T23:08:49.434Z,98511.00
2018-06-09T23:11:18.096Z,98509.00
2018-06-09T23:13:46.756Z,98510.00
2018-06-09T23:16:16.157Z,98511.00
2018-06-09T23:18:46.699Z,98510.00
2018-06-09T23:21:16.907Z,98508.00
2018-06-09T23:23:45.806Z,98508.00
2018-06-09T23:26:16.588Z,98503.00
2018-06-09T23:28:45.959Z,98503.00
2018-06-09T23:31:17.431Z,98497.00
2018-06-09T23:33:47.121Z,98494.00
2018-06-09T23:36:16.097Z,98497.00
2018-06-09T23:38:45.656Z,98497.00
2018-06-09T23:41:15.944Z,98503.00
2018-06-09T23:43:44.917Z,98500.00
2018-06-09T23:46:13.818Z,98491.00
2018-06-09T23:48:42.631Z,98491.00
2018-06-09T23:51:11.232Z,98488.00
2018-06-09T23:53:39.818Z,98487.00
2018-06-09T23:56:08.493Z,98484.00
2018-06-09T23:58:37.193Z,98485.00
